sensor_id;sensor_type;location;lat;lon;timestamp;temperature;humidity
11264;DHT22;5689;48.798;9.070;2023-05-07T00:01:26;14.40;99.90
11264;DHT22;5689;48.798;9.070;2023-05-07T00:03:54;14.40;99.90
11264;DHT22;5689;48.798;9.070;2023-05-07T00:06:24;14.30;99.90
11264;DHT22;5689;48.798;9.070;2023-05-07T00:08:56;14.20;99.90
11264;DHT22;5689;48.798;9.070;2023-05-07T00:11:25;14.10;99.90
11264;DHT22;5689;48.798;9.070;2023-05-07T00:13:55;13.90;99.90
11264;DHT22;5689;48.798;9.070;2023-05-07T00:16:24;13.80;99.90
11264;DHT22;5689;48.798;9.070;2023-05-07T00:18:52;13.90;99.90
11264;DHT22;5689;48.798;9.070;2023-05-07T00:21:21;14.10;99.90
11264;DHT22;5689;48.798;9.070;2023-05-07T00:23:51;14.20;99.90
11264;DHT22;5689;48.798;9.070;2023-05-07T00:26:19;14.00;99.90
11264;DHT22;5689;48.798;9.070;2023-05-07T00:28:50;14.00;99.90
11264;DHT22;5689;48.798;9.070;2023-05-07T00:31:23;13.70;99.90
11264;DHT22;5689;48.798;9.070;2023-05-07T00:33:52;13.70;99.90
11264;DHT22;5689;48.798;9.070;2023-05-07T00:36:21;13.70;99.90
11264;DHT22;5689;48.798;9.070;2023-05-07T00:38:53;13.70;99.90
11264;DHT22;5689;48.798;9.070;2023-05-07T00:41:41;13.70;99.90
11264;DHT22;5689;48.798;9.070;2023-05-07T00:44:10;13.70;99.90
11264;DHT22;5689;48.798;9.070;2023-05-07T00:46:39;13.60;99.90
11264;DHT22;5689;48.798;9.070;2023-05-07T00:49:11;13.70;99.90
11264;DHT22;5689;48.798;9.070;2023-05-07T00:51:41;13.70;99.90
11264;DHT22;5689;48.798;9.070;2023-05-07T00:54:15;13.60;99.90
11264;DHT22;5689;48.798;9.070;2023-05-07T00:56:45;13.60;99.90
11264;DHT22;5689;48.798;9.070;2023-05-07T00:59:14;13.50;99.90
11264;DHT22;5689;48.798;9.070;2023-05-07T01:01:43;13.30;99.90
11264;DHT22;5689;48.798;9.070;2023-05-07T01:04:15;13.30;99.90
11264;DHT22;5689;48.798;9.070;2023-05-07T01:06:44;13.40;99.90
11264;DHT22;5689;48.798;9.070;2023-05-07T01:09:19;13.50;99.90
11264;DHT22;5689;48.798;9.070;2023-05-07T01:12:07;13.30;99.90
11264;DHT22;5689;48.798;9.070;2023-05-07T01:14:38;13.20;99.90
11264;DHT22;5689;48.798;9.070;2023-05-07T01:17:06;13.20;99.90
11264;DHT22;5689;48.798;9.070;2023-05-07T01:19:40;13.20;99.90
11264;DHT22;5689;48.798;9.070;2023-05-07T01:22:29;13.50;99.90
11264;DHT22;5689;48.798;9.070;2023-05-07T01:24:59;13.40;99.90
11264;DHT22;5689;48.798;9.070;2023-05-07T01:27:29;13.30;99.90
11264;DHT22;5689;48.798;9.070;2023-05-07T01:29:57;13.20;99.90
11264;DHT22;5689;48.798;9.070;2023-05-07T01:32:33;13.30;99.90
11264;DHT22;5689;48.798;9.070;2023-05-07T01:35:05;13.20;99.90
11264;DHT22;5689;48.798;9.070;2023-05-07T01:37:37;13.20;99.90
11264;DHT22;5689;48.798;9.070;2023-05-07T01:40:06;13.20;99.90
11264;DHT22;5689;48.798;9.070;2023-05-07T01:42:35;13.20;99.90
11264;DHT22;5689;48.798;9.070;2023-05-07T01:45:04;13.20;99.90
11264;DHT22;5689;48.798;9.070;2023-05-07T01:47:32;13.40;99.90
11264;DHT22;5689;48.798;9.070;2023-05-07T01:50:01;13.40;99.90
11264;DHT22;5689;48.798;9.070;2023-05-07T01:52:29;13.70;99.90
11264;DHT22;5689;48.798;9.070;2023-05-07T01:54:58;13.70;99.90
11264;DHT22;5689;48.798;9.070;2023-05-07T01:57:26;13.60;99.90
11264;DHT22;5689;48.798;9.070;2023-05-07T01:59:54;13.60;99.90
11264;DHT22;5689;48.798;9.070;2023-05-07T02:02:22;13.60;99.90
11264;DHT22;5689;48.798;9.070;2023-05-07T02:04:52;13.60;99.90
11264;DHT22;5689;48.798;9.070;2023-05-07T02:07:21;13.70;99.90
11264;DHT22;5689;48.798;9.070;2023-05-07T02:09:49;13.70;99.90
11264;DHT22;5689;48.798;9.070;2023-05-07T02:12:19;13.70;99.90
11264;DHT22;5689;48.798;9.070;2023-05-07T02:14:47;13.50;99.90
11264;DHT22;5689;48.798;9.070;2023-05-07T02:17:15;13.40;99.90
11264;DHT22;5689;48.798;9.070;2023-05-07T02:19:43;13.30;99.90
11264;DHT22;5689;48.798;9.070;2023-05-07T02:22:11;13.40;99.90
11264;DHT22;5689;48.798;9.070;2023-05-07T02:24:39;13.70;99.90
11264;DHT22;5689;48.798;9.070;2023-05-07T02:27:07;13.90;99.90
11264;DHT22;5689;48.798;9.070;2023-05-07T02:29:37;13.60;99.90
11264;DHT22;5689;48.798;9.070;2023-05-07T02:32:04;13.40;99.90
11264;DHT22;5689;48.798;9.070;2023-05-07T02:34:33;13.30;99.90
11264;DHT22;5689;48.798;9.070;2023-05-07T02:37:00;13.20;99.90
11264;DHT22;5689;48.798;9.070;2023-05-07T02:39:28;13.00;99.90
11264;DHT22;5689;48.798;9.070;2023-05-07T02:41:56;12.90;99.90
11264;DHT22;5689;48.798;9.070;2023-05-07T02:44:25;12.90;99.90
11264;DHT22;5689;48.798;9.070;2023-05-07T02:46:54;12.70;99.90
11264;DHT22;5689;48.798;9.070;2023-05-07T02:49:22;12.70;99.90
11264;DHT22;5689;48.798;9.070;2023-05-07T02:51:50;12.70;99.90
11264;DHT22;5689;48.798;9.070;2023-05-07T02:54:22;12.80;99.90
11264;DHT22;5689;48.798;9.070;2023-05-07T02:56:50;12.70;99.90
11264;DHT22;5689;48.798;9.070;2023-05-07T02:59:18;12.60;99.90
11264;DHT22;5689;48.798;9.070;2023-05-07T03:01:46;12.80;99.90
11264;DHT22;5689;48.798;9.070;2023-05-07T03:04:16;12.60;99.90
11264;DHT22;5689;48.798;9.070;2023-05-07T03:06:44;12.40;99.90
11264;DHT22;5689;48.798;9.070;2023-05-07T03:09:12;12.30;99.90
11264;DHT22;5689;48.798;9.070;2023-05-07T03:11:40;12.30;99.90
11264;DHT22;5689;48.798;9.070;2023-05-07T03:14:08;12.20;99.90
11264;DHT22;5689;48.798;9.070;2023-05-07T03:16:36;12.20;99.90
11264;DHT22;5689;48.798;9.070;2023-05-07T03:19:04;12.40;99.90
11264;DHT22;5689;48.798;9.070;2023-05-07T03:21:33;12.30;99.90
11264;DHT22;5689;48.798;9.070;2023-05-07T03:24:01;12.10;99.90
11264;DHT22;5689;48.798;9.070;2023-05-07T03:26:29;12.00;99.90
11264;DHT22;5689;48.798;9.070;2023-05-07T03:28:57;11.90;99.90
11264;DHT22;5689;48.798;9.070;2023-05-07T03:31:25;11.90;99.90
11264;DHT22;5689;48.798;9.070;2023-05-07T03:33:54;11.90;99.90
11264;DHT22;5689;48.798;9.070;2023-05-07T03:36:23;11.90;99.90
11264;DHT22;5689;48.798;9.070;2023-05-07T03:38:55;11.90;99.90
11264;DHT22;5689;48.798;9.070;2023-05-07T03:41:25;12.10;99.90
11264;DHT22;5689;48.798;9.070;2023-05-07T03:43:54;12.00;99.90
11264;DHT22;5689;48.798;9.070;2023-05-07T03:46:22;12.20;99.90
11264;DHT22;5689;48.798;9.070;2023-05-07T03:48:52;12.20;99.90
11264;DHT22;5689;48.798;9.070;2023-05-07T03:51:20;12.00;99.90
11264;DHT22;5689;48.798;9.070;2023-05-07T03:53:48;11.80;99.90
11264;DHT22;5689;48.798;9.070;2023-05-07T03:56:17;11.70;99.90
11264;DHT22;5689;48.798;9.070;2023-05-07T03:58:47;12.00;99.90
11264;DHT22;5689;48.798;9.070;2023-05-07T04:01:15;12.10;99.90
11264;DHT22;5689;48.798;9.070;2023-05-07T04:03:43;11.90;99.90
11264;DHT22;5689;48.798;9.070;2023-05-07T04:06:11;11.80;99.90
11264;DHT22;5689;48.798;9.070;2023-05-07T04:08:42;11.70;99.90
11264;DHT22;5689;48.798;9.070;2023-05-07T04:11:11;11.60;99.90
11264;DHT22;5689;48.798;9.070;2023-05-07T04:13:40;11.60;99.90
11264;DHT22;5689;48.798;9.070;2023-05-07T04:16:09;11.60;99.90
11264;DHT22;5689;48.798;9.070;2023-05-07T04:18:37;11.60;99.90
11264;DHT22;5689;48.798;9.070;2023-05-07T04:21:05;11.50;99.90
11264;DHT22;5689;48.798;9.070;2023-05-07T04:23:37;11.60;99.90
11264;DHT22;5689;48.798;9.070;2023-05-07T04:26:08;11.60;99.90
11264;DHT22;5689;48.798;9.070;2023-05-07T04:28:41;11.60;99.90
11264;DHT22;5689;48.798;9.070;2023-05-07T04:31:09;11.60;99.90
11264;DHT22;5689;48.798;9.070;2023-05-07T04:33:38;11.90;99.90
11264;DHT22;5689;48.798;9.070;2023-05-07T04:36:09;12.10;99.90
11264;DHT22;5689;48.798;9.070;2023-05-07T04:38:45;12.00;99.90
11264;DHT22;5689;48.798;9.070;2023-05-07T04:41:13;12.00;99.90
11264;DHT22;5689;48.798;9.070;2023-05-07T04:43:43;12.10;99.90
11264;DHT22;5689;48.798;9.070;2023-05-07T04:46:13;12.10;99.90
11264;DHT22;5689;48.798;9.070;2023-05-07T04:48:42;12.00;99.90
11264;DHT22;5689;48.798;9.070;2023-05-07T04:51:10;12.30;99.90
11264;DHT22;5689;48.798;9.070;2023-05-07T04:53:39;12.40;99.90
11264;DHT22;5689;48.798;9.070;2023-05-07T04:56:07;12.40;99.90
11264;DHT22;5689;48.798;9.070;2023-05-07T04:58:39;12.60;99.90
11264;DHT22;5689;48.798;9.070;2023-05-07T05:01:10;12.50;99.90
11264;DHT22;5689;48.798;9.070;2023-05-07T05:03:38;12.30;99.90
11264;DHT22;5689;48.798;9.070;2023-05-07T05:06:07;12.20;99.90
11264;DHT22;5689;48.798;9.070;2023-05-07T05:08:36;12.20;99.90
11264;DHT22;5689;48.798;9.070;2023-05-07T05:11:04;12.20;99.90
11264;DHT22;5689;48.798;9.070;2023-05-07T05:13:34;12.20;99.90
11264;DHT22;5689;48.798;9.070;2023-05-07T05:16:10;12.40;99.90
11264;DHT22;5689;48.798;9.070;2023-05-07T05:18:39;12.60;99.90
11264;DHT22;5689;48.798;9.070;2023-05-07T05:21:08;12.60;99.90
11264;DHT22;5689;48.798;9.070;2023-05-07T05:23:37;12.70;99.90
11264;DHT22;5689;48.798;9.070;2023-05-07T05:26:05;13.10;99.90
11264;DHT22;5689;48.798;9.070;2023-05-07T05:28:33;13.30;99.90
11264;DHT22;5689;48.798;9.070;2023-05-07T05:31:03;13.80;99.90
11264;DHT22;5689;48.798;9.070;2023-05-07T05:33:36;14.50;99.90
11264;DHT22;5689;48.798;9.070;2023-05-07T05:36:05;14.50;99.90
11264;DHT22;5689;48.798;9.070;2023-05-07T05:38:36;14.50;99.90
11264;DHT22;5689;48.798;9.070;2023-05-07T05:41:04;14.80;99.90
11264;DHT22;5689;48.798;9.070;2023-05-07T05:43:34;14.60;99.90
11264;DHT22;5689;48.798;9.070;2023-05-07T05:46:02;14.50;99.90
11264;DHT22;5689;48.798;9.070;2023-05-07T05:48:31;14.70;99.90
11264;DHT22;5689;48.798;9.070;2023-05-07T05:51:02;15.10;99.90
11264;DHT22;5689;48.798;9.070;2023-05-07T05:53:30;15.50;99.90
11264;DHT22;5689;48.798;9.070;2023-05-07T05:55:58;15.80;99.90
11264;DHT22;5689;48.798;9.070;2023-05-07T05:58:26;15.90;99.90
11264;DHT22;5689;48.798;9.070;2023-05-07T06:00:59;16.70;99.90
11264;DHT22;5689;48.798;9.070;2023-05-07T06:03:30;17.30;99.90
11264;DHT22;5689;48.798;9.070;2023-05-07T06:06:03;17.70;99.90
11264;DHT22;5689;48.798;9.070;2023-05-07T06:08:31;18.40;99.90
11264;DHT22;5689;48.798;9.070;2023-05-07T06:11:01;18.40;99.90
11264;DHT22;5689;48.798;9.070;2023-05-07T06:13:32;17.80;99.90
11264;DHT22;5689;48.798;9.070;2023-05-07T06:16:00;17.70;99.90
11264;DHT22;5689;48.798;9.070;2023-05-07T06:18:29;17.50;99.90
11264;DHT22;5689;48.798;9.070;2023-05-07T06:20:57;17.10;99.90
11264;DHT22;5689;48.798;9.070;2023-05-07T06:23:29;16.80;99.90
11264;DHT22;5689;48.798;9.070;2023-05-07T06:25:59;16.70;99.90
11264;DHT22;5689;48.798;9.070;2023-05-07T06:28:32;16.80;99.90
11264;DHT22;5689;48.798;9.070;2023-05-07T06:31:14;16.90;99.90
11264;DHT22;5689;48.798;9.070;2023-05-07T06:33:49;17.40;99.90
11264;DHT22;5689;48.798;9.070;2023-05-07T06:36:17;17.70;99.90
11264;DHT22;5689;48.798;9.070;2023-05-07T06:38:47;18.00;99.90
11264;DHT22;5689;48.798;9.070;2023-05-07T06:41:15;18.20;99.90
11264;DHT22;5689;48.798;9.070;2023-05-07T06:43:43;19.10;99.90
11264;DHT22;5689;48.798;9.070;2023-05-07T06:46:31;20.10;99.90
11264;DHT22;5689;48.798;9.070;2023-05-07T06:48:59;20.10;99.90
11264;DHT22;5689;48.798;9.070;2023-05-07T06:51:28;20.50;99.90
11264;DHT22;5689;48.798;9.070;2023-05-07T06:54:02;20.60;99.90
11264;DHT22;5689;48.798;9.070;2023-05-07T06:56:32;21.20;99.90
11264;DHT22;5689;48.798;9.070;2023-05-07T06:59:02;22.10;99.90
11264;DHT22;5689;48.798;9.070;2023-05-07T07:01:34;21.10;99.90
11264;DHT22;5689;48.798;9.070;2023-05-07T07:04:03;22.20;99.90
11264;DHT22;5689;48.798;9.070;2023-05-07T07:06:32;22.90;99.90
11264;DHT22;5689;48.798;9.070;2023-05-07T07:09:04;22.80;99.90
11264;DHT22;5689;48.798;9.070;2023-05-07T07:11:32;24.00;99.60
11264;DHT22;5689;48.798;9.070;2023-05-07T07:14:00;23.60;98.90
11264;DHT22;5689;48.798;9.070;2023-05-07T07:16:31;23.60;98.10
11264;DHT22;5689;48.798;9.070;2023-05-07T07:18:59;23.30;97.50
11264;DHT22;5689;48.798;9.070;2023-05-07T07:21:27;23.40;97.90
11264;DHT22;5689;48.798;9.070;2023-05-07T07:23:55;25.00;95.90
11264;DHT22;5689;48.798;9.070;2023-05-07T07:26:24;25.50;94.70
11264;DHT22;5689;48.798;9.070;2023-05-07T07:28:52;25.00;94.70
11264;DHT22;5689;48.798;9.070;2023-05-07T07:31:22;24.70;95.50
11264;DHT22;5689;48.798;9.070;2023-05-07T07:33:50;24.80;94.60
11264;DHT22;5689;48.798;9.070;2023-05-07T07:36:19;25.40;94.70
11264;DHT22;5689;48.798;9.070;2023-05-07T07:38:47;22.70;97.40
11264;DHT22;5689;48.798;9.070;2023-05-07T07:41:16;22.80;97.60
11264;DHT22;5689;48.798;9.070;2023-05-07T07:43:46;23.40;97.60
11264;DHT22;5689;48.798;9.070;2023-05-07T07:46:15;24.50;96.20
11264;DHT22;5689;48.798;9.070;2023-05-07T07:48:43;24.40;95.80
11264;DHT22;5689;48.798;9.070;2023-05-07T07:51:11;24.50;95.30
11264;DHT22;5689;48.798;9.070;2023-05-07T07:53:39;23.40;96.10
11264;DHT22;5689;48.798;9.070;2023-05-07T07:56:08;23.20;97.80
11264;DHT22;5689;48.798;9.070;2023-05-07T07:58:36;23.00;96.40
11264;DHT22;5689;48.798;9.070;2023-05-07T08:01:07;22.40;98.20
11264;DHT22;5689;48.798;9.070;2023-05-07T08:03:35;22.20;97.60
11264;DHT22;5689;48.798;9.070;2023-05-07T08:06:03;22.10;97.20
11264;DHT22;5689;48.798;9.070;2023-05-07T08:08:34;22.40;97.50
11264;DHT22;5689;48.798;9.070;2023-05-07T08:11:02;23.00;95.90
11264;DHT22;5689;48.798;9.070;2023-05-07T08:13:32;23.70;94.50
11264;DHT22;5689;48.798;9.070;2023-05-07T08:16:00;24.40;93.30
11264;DHT22;5689;48.798;9.070;2023-05-07T08:18:30;25.70;93.60
11264;DHT22;5689;48.798;9.070;2023-05-07T08:21:01;27.00;90.00
11264;DHT22;5689;48.798;9.070;2023-05-07T08:23:30;27.70;87.40
11264;DHT22;5689;48.798;9.070;2023-05-07T08:25:59;27.40;85.40
11264;DHT22;5689;48.798;9.070;2023-05-07T08:28:28;27.10;88.10
11264;DHT22;5689;48.798;9.070;2023-05-07T08:30:56;25.80;87.70
11264;DHT22;5689;48.798;9.070;2023-05-07T08:33:29;23.40;91.60
11264;DHT22;5689;48.798;9.070;2023-05-07T08:35:57;22.90;92.80
11264;DHT22;5689;48.798;9.070;2023-05-07T08:38:26;23.20;92.40
11264;DHT22;5689;48.798;9.070;2023-05-07T08:40:54;23.70;91.60
11264;DHT22;5689;48.798;9.070;2023-05-07T08:43:25;25.00;90.80
11264;DHT22;5689;48.798;9.070;2023-05-07T08:45:54;25.30;90.50
11264;DHT22;5689;48.798;9.070;2023-05-07T08:48:27;26.10;89.00
11264;DHT22;5689;48.798;9.070;2023-05-07T08:51:21;25.10;89.20
11264;DHT22;5689;48.798;9.070;2023-05-07T08:53:51;26.70;90.90
11264;DHT22;5689;48.798;9.070;2023-05-07T08:56:26;26.60;86.00
11264;DHT22;5689;48.798;9.070;2023-05-07T08:58:54;27.10;85.90
11264;DHT22;5689;48.798;9.070;2023-05-07T09:01:27;26.20;87.00
11264;DHT22;5689;48.798;9.070;2023-05-07T09:03:57;26.60;86.20
11264;DHT22;5689;48.798;9.070;2023-05-07T09:06:28;27.90;83.00
11264;DHT22;5689;48.798;9.070;2023-05-07T09:08:57;28.40;84.50
11264;DHT22;5689;48.798;9.070;2023-05-07T09:11:30;29.70;81.10
11264;DHT22;5689;48.798;9.070;2023-05-07T09:13:59;30.20;80.00
11264;DHT22;5689;48.798;9.070;2023-05-07T09:16:33;30.80;78.10
11264;DHT22;5689;48.798;9.070;2023-05-07T09:19:02;31.30;75.40
11264;DHT22;5689;48.798;9.070;2023-05-07T09:21:32;31.10;75.30
11264;DHT22;5689;48.798;9.070;2023-05-07T09:24:03;30.90;74.50
11264;DHT22;5689;48.798;9.070;2023-05-07T09:26:35;31.30;76.10
11264;DHT22;5689;48.798;9.070;2023-05-07T09:29:04;29.50;76.70
11264;DHT22;5689;48.798;9.070;2023-05-07T09:31:36;29.40;75.80
11264;DHT22;5689;48.798;9.070;2023-05-07T09:34:05;29.20;77.00
11264;DHT22;5689;48.798;9.070;2023-05-07T09:36:37;31.00;73.70
11264;DHT22;5689;48.798;9.070;2023-05-07T09:39:06;31.00;72.60
11264;DHT22;5689;48.798;9.070;2023-05-07T09:41:43;31.30;76.40
11264;DHT22;5689;48.798;9.070;2023-05-07T09:44:21;31.30;71.70
11264;DHT22;5689;48.798;9.070;2023-05-07T09:46:54;30.40;72.10
11264;DHT22;5689;48.798;9.070;2023-05-07T09:49:30;30.60;72.30
11264;DHT22;5689;48.798;9.070;2023-05-07T09:52:06;31.10;72.40
11264;DHT22;5689;48.798;9.070;2023-05-07T09:54:38;32.90;70.90
11264;DHT22;5689;48.798;9.070;2023-05-07T09:57:07;31.00;69.40
11264;DHT22;5689;48.798;9.070;2023-05-07T09:59:38;30.20;72.40
11264;DHT22;5689;48.798;9.070;2023-05-07T10:02:10;30.00;71.80
11264;DHT22;5689;48.798;9.070;2023-05-07T10:04:46;29.90;72.50
11264;DHT22;5689;48.798;9.070;2023-05-07T10:07:19;30.60;71.70
11264;DHT22;5689;48.798;9.070;2023-05-07T10:09:50;30.90;69.10
11264;DHT22;5689;48.798;9.070;2023-05-07T10:12:27;30.70;70.30
11264;DHT22;5689;48.798;9.070;2023-05-07T10:14:56;29.30;73.70
11264;DHT22;5689;48.798;9.070;2023-05-07T10:17:24;30.00;70.60
11264;DHT22;5689;48.798;9.070;2023-05-07T10:19:53;30.30;74.30
11264;DHT22;5689;48.798;9.070;2023-05-07T10:22:24;29.70;71.50
11264;DHT22;5689;48.798;9.070;2023-05-07T10:24:57;27.70;71.60
11264;DHT22;5689;48.798;9.070;2023-05-07T10:27:27;29.40;70.00
11264;DHT22;5689;48.798;9.070;2023-05-07T10:30:04;31.60;69.40
11264;DHT22;5689;48.798;9.070;2023-05-07T10:32:39;30.20;71.90
11264;DHT22;5689;48.798;9.070;2023-05-07T10:35:16;28.10;73.10
11264;DHT22;5689;48.798;9.070;2023-05-07T10:37:48;26.70;75.60
11264;DHT22;5689;48.798;9.070;2023-05-07T10:40:20;25.50;79.30
11264;DHT22;5689;48.798;9.070;2023-05-07T10:42:55;25.50;79.70
11264;DHT22;5689;48.798;9.070;2023-05-07T10:45:24;25.20;81.10
11264;DHT22;5689;48.798;9.070;2023-05-07T10:48:10;25.30;79.40
11264;DHT22;5689;48.798;9.070;2023-05-07T10:51:18;25.20;77.60
11264;DHT22;5689;48.798;9.070;2023-05-07T10:53:48;25.10;80.00
11264;DHT22;5689;48.798;9.070;2023-05-07T10:56:24;25.40;79.40
11264;DHT22;5689;48.798;9.070;2023-05-07T10:59:33;25.40;79.10
11264;DHT22;5689;48.798;9.070;2023-05-07T11:03:05;25.50;79.50
11264;DHT22;5689;48.798;9.070;2023-05-07T11:05:45;25.20;79.80
11264;DHT22;5689;48.798;9.070;2023-05-07T11:08:24;25.40;82.30
11264;DHT22;5689;48.798;9.070;2023-05-07T11:10:59;25.10;83.40
11264;DHT22;5689;48.798;9.070;2023-05-07T11:13:43;24.10;81.10
11264;DHT22;5689;48.798;9.070;2023-05-07T11:16:47;23.40;85.10
11264;DHT22;5689;48.798;9.070;2023-05-07T11:19:47;23.40;92.00
11264;DHT22;5689;48.798;9.070;2023-05-07T11:22:37;23.00;95.20
11264;DHT22;5689;48.798;9.070;2023-05-07T11:25:24;22.50;97.60
11264;DHT22;5689;48.798;9.070;2023-05-07T11:28:07;22.60;98.70
11264;DHT22;5689;48.798;9.070;2023-05-07T11:30:42;22.50;99.90
11264;DHT22;5689;48.798;9.070;2023-05-07T11:33:17;22.10;99.90
11264;DHT22;5689;48.798;9.070;2023-05-07T11:35:46;21.90;99.90
11264;DHT22;5689;48.798;9.070;2023-05-07T11:38:17;21.60;99.90
11264;DHT22;5689;48.798;9.070;2023-05-07T11:40:49;21.60;99.90
11264;DHT22;5689;48.798;9.070;2023-05-07T11:43:19;21.70;99.90
11264;DHT22;5689;48.798;9.070;2023-05-07T11:45:48;21.70;99.90
11264;DHT22;5689;48.798;9.070;2023-05-07T11:48:16;21.50;99.90
11264;DHT22;5689;48.798;9.070;2023-05-07T11:50:51;21.90;99.90
11264;DHT22;5689;48.798;9.070;2023-05-07T11:53:20;22.20;99.90
11264;DHT22;5689;48.798;9.070;2023-05-07T11:55:52;22.10;99.90
11264;DHT22;5689;48.798;9.070;2023-05-07T11:58:23;21.90;99.90
11264;DHT22;5689;48.798;9.070;2023-05-07T12:00:53;21.10;99.90
11264;DHT22;5689;48.798;9.070;2023-05-07T12:03:21;20.20;99.90
11264;DHT22;5689;48.798;9.070;2023-05-07T12:05:49;19.40;99.90
11264;DHT22;5689;48.798;9.070;2023-05-07T12:08:18;18.90;99.90
11264;DHT22;5689;48.798;9.070;2023-05-07T12:10:49;18.60;99.90
11264;DHT22;5689;48.798;9.070;2023-05-07T12:13:18;18.40;99.90
11264;DHT22;5689;48.798;9.070;2023-05-07T12:15:50;18.10;99.90
11264;DHT22;5689;48.798;9.070;2023-05-07T12:18:19;17.60;99.90
11264;DHT22;5689;48.798;9.070;2023-05-07T12:20:47;16.90;99.90
11264;DHT22;5689;48.798;9.070;2023-05-07T12:23:15;16.30;99.90
11264;DHT22;5689;48.798;9.070;2023-05-07T12:25:44;15.50;99.90
11264;DHT22;5689;48.798;9.070;2023-05-07T12:28:15;15.30;99.90
11264;DHT22;5689;48.798;9.070;2023-05-07T12:30:46;15.40;99.90
11264;DHT22;5689;48.798;9.070;2023-05-07T12:33:17;15.00;99.90
11264;DHT22;5689;48.798;9.070;2023-05-07T12:35:48;14.70;99.90
11264;DHT22;5689;48.798;9.070;2023-05-07T12:38:17;14.60;99.90
11264;DHT22;5689;48.798;9.070;2023-05-07T12:40:47;14.60;99.90
11264;DHT22;5689;48.798;9.070;2023-05-07T12:43:18;14.50;99.90
11264;DHT22;5689;48.798;9.070;2023-05-07T12:45:48;14.50;99.90
11264;DHT22;5689;48.798;9.070;2023-05-07T12:48:19;14.50;99.90
11264;DHT22;5689;48.798;9.070;2023-05-07T12:50:49;14.60;99.90
11264;DHT22;5689;48.798;9.070;2023-05-07T12:53:20;14.80;99.90
11264;DHT22;5689;48.798;9.070;2023-05-07T12:55:50;14.90;99.90
11264;DHT22;5689;48.798;9.070;2023-05-07T12:58:20;14.90;99.90
11264;DHT22;5689;48.798;9.070;2023-05-07T13:00:49;15.00;99.90
11264;DHT22;5689;48.798;9.070;2023-05-07T13:03:23;15.30;99.90
11264;DHT22;5689;48.798;9.070;2023-05-07T13:05:52;15.50;99.90
11264;DHT22;5689;48.798;9.070;2023-05-07T13:08:28;15.60;99.90
11264;DHT22;5689;48.798;9.070;2023-05-07T13:10:57;15.50;99.90
11264;DHT22;5689;48.798;9.070;2023-05-07T13:13:26;15.40;99.90
11264;DHT22;5689;48.798;9.070;2023-05-07T13:15:55;15.30;99.90
11264;DHT22;5689;48.798;9.070;2023-05-07T13:18:25;15.00;99.90
11264;DHT22;5689;48.798;9.070;2023-05-07T13:20:54;14.80;99.90
11264;DHT22;5689;48.798;9.070;2023-05-07T13:23:22;14.70;99.90
11264;DHT22;5689;48.798;9.070;2023-05-07T13:25:50;14.60;99.90
11264;DHT22;5689;48.798;9.070;2023-05-07T13:28:19;14.50;99.90
11264;DHT22;5689;48.798;9.070;2023-05-07T13:30:48;14.60;99.90
11264;DHT22;5689;48.798;9.070;2023-05-07T13:33:16;14.50;99.90
11264;DHT22;5689;48.798;9.070;2023-05-07T13:35:45;14.50;99.90
11264;DHT22;5689;48.798;9.070;2023-05-07T13:38:13;14.60;99.90
11264;DHT22;5689;48.798;9.070;2023-05-07T13:40:42;14.60;99.90
11264;DHT22;5689;48.798;9.070;2023-05-07T13:43:10;14.70;99.90
11264;DHT22;5689;48.798;9.070;2023-05-07T13:45:38;14.80;99.90
11264;DHT22;5689;48.798;9.070;2023-05-07T13:48:06;14.90;99.90
11264;DHT22;5689;48.798;9.070;2023-05-07T13:50:34;14.90;99.90
11264;DHT22;5689;48.798;9.070;2023-05-07T13:53:03;15.00;99.90
11264;DHT22;5689;48.798;9.070;2023-05-07T13:55:31;15.00;99.90
11264;DHT22;5689;48.798;9.070;2023-05-07T13:58:01;15.10;99.90
11264;DHT22;5689;48.798;9.070;2023-05-07T14:00:32;15.00;99.90
11264;DHT22;5689;48.798;9.070;2023-05-07T14:03:00;15.10;99.90
11264;DHT22;5689;48.798;9.070;2023-05-07T14:05:28;15.30;99.90
11264;DHT22;5689;48.798;9.070;2023-05-07T14:07:57;15.30;99.90
11264;DHT22;5689;48.798;9.070;2023-05-07T14:10:27;15.40;99.90
11264;DHT22;5689;48.798;9.070;2023-05-07T14:12:54;15.40;99.90
11264;DHT22;5689;48.798;9.070;2023-05-07T14:15:22;15.50;99.90
11264;DHT22;5689;48.798;9.070;2023-05-07T14:17:50;15.50;99.90
11264;DHT22;5689;48.798;9.070;2023-05-07T14:20:18;15.50;99.90
11264;DHT22;5689;48.798;9.070;2023-05-07T14:22:46;15.50;99.90
11264;DHT22;5689;48.798;9.070;2023-05-07T14:25:14;15.60;99.90
11264;DHT22;5689;48.798;9.070;2023-05-07T14:27:49;15.60;99.90
11264;DHT22;5689;48.798;9.070;2023-05-07T14:30:17;15.50;99.90
11264;DHT22;5689;48.798;9.070;2023-05-07T14:32:45;15.50;99.90
11264;DHT22;5689;48.798;9.070;2023-05-07T14:35:13;15.60;99.90
11264;DHT22;5689;48.798;9.070;2023-05-07T14:37:41;15.60;99.90
11264;DHT22;5689;48.798;9.070;2023-05-07T14:40:09;15.50;99.90
11264;DHT22;5689;48.798;9.070;2023-05-07T14:42:39;15.50;99.90
11264;DHT22;5689;48.798;9.070;2023-05-07T14:45:10;15.40;99.90
11264;DHT22;5689;48.798;9.070;2023-05-07T14:47:38;15.40;99.90
11264;DHT22;5689;48.798;9.070;2023-05-07T14:50:06;15.40;99.90
11264;DHT22;5689;48.798;9.070;2023-05-07T14:52:34;15.30;99.90
11264;DHT22;5689;48.798;9.070;2023-05-07T14:55:03;15.30;99.90
11264;DHT22;5689;48.798;9.070;2023-05-07T14:57:31;15.40;99.90
11264;DHT22;5689;48.798;9.070;2023-05-07T15:00:01;15.40;99.90
11264;DHT22;5689;48.798;9.070;2023-05-07T15:02:32;15.50;99.90
11264;DHT22;5689;48.798;9.070;2023-05-07T15:05:00;15.60;99.90
11264;DHT22;5689;48.798;9.070;2023-05-07T15:07:28;15.70;99.90
11264;DHT22;5689;48.798;9.070;2023-05-07T15:10:06;15.70;99.90
11264;DHT22;5689;48.798;9.070;2023-05-07T15:12:34;15.70;99.90
11264;DHT22;5689;48.798;9.070;2023-05-07T15:15:03;15.70;99.90
11264;DHT22;5689;48.798;9.070;2023-05-07T15:17:32;15.70;99.90
11264;DHT22;5689;48.798;9.070;2023-05-07T15:20:00;15.80;99.90
11264;DHT22;5689;48.798;9.070;2023-05-07T15:22:31;15.90;99.90
11264;DHT22;5689;48.798;9.070;2023-05-07T15:24:59;16.30;99.90
11264;DHT22;5689;48.798;9.070;2023-05-07T15:27:27;16.40;99.90
11264;DHT22;5689;48.798;9.070;2023-05-07T15:29:55;16.30;99.90
11264;DHT22;5689;48.798;9.070;2023-05-07T15:32:24;16.30;99.90
11264;DHT22;5689;48.798;9.070;2023-05-07T15:34:55;16.10;99.90
11264;DHT22;5689;48.798;9.070;2023-05-07T15:37:24;16.20;99.90
11264;DHT22;5689;48.798;9.070;2023-05-07T15:39:53;16.20;99.90
11264;DHT22;5689;48.798;9.070;2023-05-07T15:42:21;16.60;99.90
11264;DHT22;5689;48.798;9.070;2023-05-07T15:44:49;16.70;99.90
11264;DHT22;5689;48.798;9.070;2023-05-07T15:47:17;16.80;99.90
11264;DHT22;5689;48.798;9.070;2023-05-07T15:49:45;16.90;99.90
11264;DHT22;5689;48.798;9.070;2023-05-07T15:52:14;16.70;99.90
11264;DHT22;5689;48.798;9.070;2023-05-07T15:54:43;16.80;99.90
11264;DHT22;5689;48.798;9.070;2023-05-07T15:57:11;17.10;99.90
11264;DHT22;5689;48.798;9.070;2023-05-07T15:59:39;17.30;99.90
11264;DHT22;5689;48.798;9.070;2023-05-07T16:02:07;17.70;99.90
11264;DHT22;5689;48.798;9.070;2023-05-07T16:04:36;17.90;99.90
11264;DHT22;5689;48.798;9.070;2023-05-07T16:07:04;18.00;99.90